sensor_id;sensor_type;location;lat;lon;timestamp;P1;durP1;ratioP1;P2;durP2;ratioP2
65558;SDS011;52203;51.998;5.140;2023-06-22T00:02:15;12.95;;;5.65;;
65558;SDS011;52203;51.998;5.140;2023-06-22T00:04:41;8.93;;;5.57;;
65558;SDS011;52203;51.998;5.140;2023-06-22T00:07:06;9.57;;;5.90;;
65558;SDS011;52203;51.998;5.140;2023-06-22T00:09:33;9.45;;;6.03;;
65558;SDS011;52203;51.998;5.140;2023-06-22T00:11:59;8.75;;;5.68;;
65558;SDS011;52203;51.998;5.140;2023-06-22T00:14:24;9.27;;;5.85;;
65558;SDS011;52203;51.998;5.140;2023-06-22T00:16:50;12.63;;;5.38;;
65558;SDS011;52203;51.998;5.140;2023-06-22T00:19:19;10.55;;;5.43;;
65558;SDS011;52203;51.998;5.140;2023-06-22T00:21:47;12.52;;;6.38;;
65558;SDS011;52203;51.998;5.140;2023-06-22T00:24:17;9.40;;;5.65;;
65558;SDS011;52203;51.998;5.140;2023-06-22T00:26:43;10.90;;;5.35;;
65558;SDS011;52203;51.998;5.140;2023-06-22T00:29:08;11.00;;;5.47;;
65558;SDS011;52203;51.998;5.140;2023-06-22T00:31:34;13.15;;;5.68;;
65558;SDS011;52203;51.998;5.140;2023-06-22T00:33:59;10.68;;;5.78;;
65558;SDS011;52203;51.998;5.140;2023-06-22T00:36:25;11.38;;;5.32;;
65558;SDS011;52203;51.998;5.140;2023-06-22T00:38:51;10.77;;;5.63;;
65558;SDS011;52203;51.998;5.140;2023-06-22T00:41:17;13.38;;;6.00;;
65558;SDS011;52203;51.998;5.140;2023-06-22T00:43:42;9.13;;;6.15;;
65558;SDS011;52203;51.998;5.140;2023-06-22T00:46:08;10.98;;;5.78;;
65558;SDS011;52203;51.998;5.140;2023-06-22T00:48:34;12.60;;;6.43;;
65558;SDS011;52203;51.998;5.140;2023-06-22T00:51:02;12.80;;;7.10;;
65558;SDS011;52203;51.998;5.140;2023-06-22T00:53:27;10.70;;;7.00;;
65558;SDS011;52203;51.998;5.140;2023-06-22T00:55:53;10.57;;;6.00;;
65558;SDS011;52203;51.998;5.140;2023-06-22T00:58:19;12.85;;;7.05;;
65558;SDS011;52203;51.998;5.140;2023-06-22T01:00:46;12.43;;;6.60;;
65558;SDS011;52203;51.998;5.140;2023-06-22T01:03:12;12.15;;;6.10;;
65558;SDS011;52203;51.998;5.140;2023-06-22T01:05:39;16.90;;;6.47;;
65558;SDS011;52203;51.998;5.140;2023-06-22T01:13:35;11.45;;;6.75;;
65558;SDS011;52203;51.998;5.140;2023-06-22T01:18:42;11.38;;;6.45;;
65558;SDS011;52203;51.998;5.140;2023-06-22T01:21:11;10.00;;;5.72;;
65558;SDS011;52203;51.998;5.140;2023-06-22T01:23:51;13.07;;;5.70;;
65558;SDS011;52203;51.998;5.140;2023-06-22T01:28:55;12.13;;;6.45;;
65558;SDS011;52203;51.998;5.140;2023-06-22T01:31:24;11.52;;;6.72;;
65558;SDS011;52203;51.998;5.140;2023-06-22T01:33:55;10.05;;;5.88;;
65558;SDS011;52203;51.998;5.140;2023-06-22T01:36:23;12.90;;;7.18;;
65558;SDS011;52203;51.998;5.140;2023-06-22T01:38:49;12.50;;;7.78;;
65558;SDS011;52203;51.998;5.140;2023-06-22T01:41:17;11.52;;;7.30;;
65558;SDS011;52203;51.998;5.140;2023-06-22T01:43:43;12.70;;;7.20;;
65558;SDS011;52203;51.998;5.140;2023-06-22T01:46:10;11.40;;;6.90;;
65558;SDS011;52203;51.998;5.140;2023-06-22T01:48:37;12.10;;;6.90;;
65558;SDS011;52203;51.998;5.140;2023-06-22T01:51:04;10.60;;;6.68;;
65558;SDS011;52203;51.998;5.140;2023-06-22T01:53:29;13.95;;;7.18;;
65558;SDS011;52203;51.998;5.140;2023-06-22T01:55:55;14.68;;;7.38;;
65558;SDS011;52203;51.998;5.140;2023-06-22T01:58:23;13.43;;;7.03;;
65558;SDS011;52203;51.998;5.140;2023-06-22T02:01:00;12.88;;;6.90;;
65558;SDS011;52203;51.998;5.140;2023-06-22T02:03:45;11.75;;;7.10;;
65558;SDS011;52203;51.998;5.140;2023-06-22T02:06:21;11.02;;;6.75;;
65558;SDS011;52203;51.998;5.140;2023-06-22T02:08:57;13.02;;;6.30;;
65558;SDS011;52203;51.998;5.140;2023-06-22T02:11:26;14.60;;;6.30;;
65558;SDS011;52203;51.998;5.140;2023-06-22T02:13:53;14.13;;;6.50;;
65558;SDS011;52203;51.998;5.140;2023-06-22T02:16:19;14.30;;;6.75;;
65558;SDS011;52203;51.998;5.140;2023-06-22T02:18:49;13.30;;;6.75;;
65558;SDS011;52203;51.998;5.140;2023-06-22T02:21:16;12.32;;;7.28;;
65558;SDS011;52203;51.998;5.140;2023-06-22T02:23:42;16.75;;;6.80;;
65558;SDS011;52203;51.998;5.140;2023-06-22T02:26:08;13.45;;;7.22;;
65558;SDS011;52203;51.998;5.140;2023-06-22T02:28:34;12.40;;;7.13;;
65558;SDS011;52203;51.998;5.140;2023-06-22T02:30:59;12.43;;;6.82;;
65558;SDS011;52203;51.998;5.140;2023-06-22T02:33:25;13.00;;;7.60;;
65558;SDS011;52203;51.998;5.140;2023-06-22T02:35:50;12.05;;;7.38;;
65558;SDS011;52203;51.998;5.140;2023-06-22T02:38:16;17.52;;;7.40;;
65558;SDS011;52203;51.998;5.140;2023-06-22T02:40:42;12.50;;;7.43;;
65558;SDS011;52203;51.998;5.140;2023-06-22T02:43:08;14.88;;;8.20;;
65558;SDS011;52203;51.998;5.140;2023-06-22T02:45:33;16.65;;;7.20;;
65558;SDS011;52203;51.998;5.140;2023-06-22T02:47:59;16.05;;;7.40;;
65558;SDS011;52203;51.998;5.140;2023-06-22T02:50:25;15.13;;;7.28;;
65558;SDS011;52203;51.998;5.140;2023-06-22T02:52:50;13.00;;;7.53;;
65558;SDS011;52203;51.998;5.140;2023-06-22T02:55:16;15.32;;;7.47;;
65558;SDS011;52203;51.998;5.140;2023-06-22T02:57:41;14.75;;;7.55;;
65558;SDS011;52203;51.998;5.140;2023-06-22T03:00:09;14.55;;;7.65;;
65558;SDS011;52203;51.998;5.140;2023-06-22T03:02:46;14.32;;;7.63;;
65558;SDS011;52203;51.998;5.140;2023-06-22T03:05:12;16.08;;;8.60;;
65558;SDS011;52203;51.998;5.140;2023-06-22T03:07:42;17.50;;;8.18;;
65558;SDS011;52203;51.998;5.140;2023-06-22T03:10:11;14.20;;;8.32;;
65558;SDS011;52203;51.998;5.140;2023-06-22T03:12:38;15.95;;;8.00;;
65558;SDS011;52203;51.998;5.140;2023-06-22T03:15:05;14.15;;;6.85;;
65558;SDS011;52203;51.998;5.140;2023-06-22T03:17:32;13.02;;;7.40;;
65558;SDS011;52203;51.998;5.140;2023-06-22T03:20:01;15.30;;;7.05;;
65558;SDS011;52203;51.998;5.140;2023-06-22T03:22:34;13.20;;;7.50;;
65558;SDS011;52203;51.998;5.140;2023-06-22T03:25:01;12.10;;;6.38;;
65558;SDS011;52203;51.998;5.140;2023-06-22T03:27:27;20.90;;;6.80;;
65558;SDS011;52203;51.998;5.140;2023-06-22T03:29:52;17.98;;;7.93;;
65558;SDS011;52203;51.998;5.140;2023-06-22T03:32:18;19.42;;;7.88;;
65558;SDS011;52203;51.998;5.140;2023-06-22T03:34:43;16.63;;;8.07;;
65558;SDS011;52203;51.998;5.140;2023-06-22T03:37:12;13.50;;;7.85;;
65558;SDS011;52203;51.998;5.140;2023-06-22T03:39:39;15.90;;;8.70;;
65558;SDS011;52203;51.998;5.140;2023-06-22T03:42:05;14.00;;;7.90;;
65558;SDS011;52203;51.998;5.140;2023-06-22T03:44:31;15.00;;;8.38;;
65558;SDS011;52203;51.998;5.140;2023-06-22T03:46:56;15.88;;;8.07;;
65558;SDS011;52203;51.998;5.140;2023-06-22T03:49:22;16.08;;;8.25;;
65558;SDS011;52203;51.998;5.140;2023-06-22T03:51:47;15.40;;;8.18;;
65558;SDS011;52203;51.998;5.140;2023-06-22T03:54:13;14.43;;;7.60;;
65558;SDS011;52203;51.998;5.140;2023-06-22T03:56:39;13.93;;;7.80;;
65558;SDS011;52203;51.998;5.140;2023-06-22T03:59:04;18.80;;;8.80;;
65558;SDS011;52203;51.998;5.140;2023-06-22T04:01:30;16.23;;;8.45;;
65558;SDS011;52203;51.998;5.140;2023-06-22T04:03:55;22.35;;;9.52;;
65558;SDS011;52203;51.998;5.140;2023-06-22T04:06:21;19.70;;;9.25;;
65558;SDS011;52203;51.998;5.140;2023-06-22T04:08:47;18.63;;;9.50;;
65558;SDS011;52203;51.998;5.140;2023-06-22T04:11:16;20.60;;;10.40;;
65558;SDS011;52203;51.998;5.140;2023-06-22T04:13:43;17.08;;;8.52;;
65558;SDS011;52203;51.998;5.140;2023-06-22T04:16:09;19.05;;;9.30;;
65558;SDS011;52203;51.998;5.140;2023-06-22T04:18:34;17.20;;;9.00;;
65558;SDS011;52203;51.998;5.140;2023-06-22T04:21:00;16.70;;;8.90;;
65558;SDS011;52203;51.998;5.140;2023-06-22T04:23:26;15.18;;;8.73;;
65558;SDS011;52203;51.998;5.140;2023-06-22T04:25:51;17.38;;;9.98;;
65558;SDS011;52203;51.998;5.140;2023-06-22T04:28:17;20.73;;;10.57;;
65558;SDS011;52203;51.998;5.140;2023-06-22T04:30:43;18.20;;;9.95;;
65558;SDS011;52203;51.998;5.140;2023-06-22T04:33:14;17.25;;;9.70;;
65558;SDS011;52203;51.998;5.140;2023-06-22T04:35:41;19.60;;;9.30;;
65558;SDS011;52203;51.998;5.140;2023-06-22T04:38:11;16.88;;;10.23;;
65558;SDS011;52203;51.998;5.140;2023-06-22T04:40:38;19.33;;;10.38;;
65558;SDS011;52203;51.998;5.140;2023-06-22T04:43:04;22.17;;;10.60;;
65558;SDS011;52203;51.998;5.140;2023-06-22T04:45:31;16.10;;;10.10;;
65558;SDS011;52203;51.998;5.140;2023-06-22T04:47:58;20.42;;;10.40;;
65558;SDS011;52203;51.998;5.140;2023-06-22T04:50:23;17.90;;;10.63;;
65558;SDS011;52203;51.998;5.140;2023-06-22T04:52:49;19.63;;;9.88;;
65558;SDS011;52203;51.998;5.140;2023-06-22T04:55:16;15.30;;;9.32;;
65558;SDS011;52203;51.998;5.140;2023-06-22T04:57:46;15.20;;;9.80;;
65558;SDS011;52203;51.998;5.140;2023-06-22T05:00:22;16.13;;;9.38;;
65558;SDS011;52203;51.998;5.140;2023-06-22T05:02:48;15.35;;;9.02;;
65558;SDS011;52203;51.998;5.140;2023-06-22T05:05:14;18.85;;;9.65;;
65558;SDS011;52203;51.998;5.140;2023-06-22T05:07:47;15.95;;;9.65;;
65558;SDS011;52203;51.998;5.140;2023-06-22T05:10:17;17.98;;;9.32;;
65558;SDS011;52203;51.998;5.140;2023-06-22T05:12:44;18.98;;;10.13;;
65558;SDS011;52203;51.998;5.140;2023-06-22T05:15:10;14.88;;;10.00;;
65558;SDS011;52203;51.998;5.140;2023-06-22T05:17:36;19.45;;;10.77;;
65558;SDS011;52203;51.998;5.140;2023-06-22T05:20:08;14.80;;;9.88;;
65558;SDS011;52203;51.998;5.140;2023-06-22T05:22:34;18.15;;;9.88;;
65558;SDS011;52203;51.998;5.140;2023-06-22T05:25:00;15.60;;;9.75;;
65558;SDS011;52203;51.998;5.140;2023-06-22T05:27:26;17.30;;;9.27;;
65558;SDS011;52203;51.998;5.140;2023-06-22T05:29:51;15.73;;;9.38;;
65558;SDS011;52203;51.998;5.140;2023-06-22T05:32:17;16.60;;;9.88;;
65558;SDS011;52203;51.998;5.140;2023-06-22T05:34:43;16.45;;;9.45;;
65558;SDS011;52203;51.998;5.140;2023-06-22T05:37:09;17.88;;;10.65;;
65558;SDS011;52203;51.998;5.140;2023-06-22T05:39:34;15.63;;;9.57;;
65558;SDS011;52203;51.998;5.140;2023-06-22T05:42:03;15.05;;;9.57;;
65558;SDS011;52203;51.998;5.140;2023-06-22T05:44:32;15.13;;;9.73;;
65558;SDS011;52203;51.998;5.140;2023-06-22T05:46:58;15.40;;;9.77;;
65558;SDS011;52203;51.998;5.140;2023-06-22T05:49:24;18.13;;;10.13;;
65558;SDS011;52203;51.998;5.140;2023-06-22T05:51:54;15.68;;;9.70;;
65558;SDS011;52203;51.998;5.140;2023-06-22T05:54:21;14.82;;;9.93;;
65558;SDS011;52203;51.998;5.140;2023-06-22T05:56:46;18.08;;;10.20;;
65558;SDS011;52203;51.998;5.140;2023-06-22T05:59:12;16.17;;;10.15;;
65558;SDS011;52203;51.998;5.140;2023-06-22T06:01:37;18.45;;;11.38;;
65558;SDS011;52203;51.998;5.140;2023-06-22T06:04:04;15.95;;;10.50;;
65558;SDS011;52203;51.998;5.140;2023-06-22T06:06:33;17.00;;;10.70;;
65558;SDS011;52203;51.998;5.140;2023-06-22T06:09:00;17.73;;;11.82;;
65558;SDS011;52203;51.998;5.140;2023-06-22T06:11:25;17.73;;;11.43;;
65558;SDS011;52203;51.998;5.140;2023-06-22T06:13:51;17.70;;;11.98;;
65558;SDS011;52203;51.998;5.140;2023-06-22T06:16:17;18.63;;;12.45;;
65558;SDS011;52203;51.998;5.140;2023-06-22T06:18:42;21.67;;;12.80;;
65558;SDS011;52203;51.998;5.140;2023-06-22T06:21:08;19.85;;;12.60;;
65558;SDS011;52203;51.998;5.140;2023-06-22T06:23:33;17.98;;;12.55;;
65558;SDS011;52203;51.998;5.140;2023-06-22T06:25:59;20.83;;;12.73;;
65558;SDS011;52203;51.998;5.140;2023-06-22T06:28:24;20.02;;;13.13;;
65558;SDS011;52203;51.998;5.140;2023-06-22T06:30:50;20.58;;;13.65;;
65558;SDS011;52203;51.998;5.140;2023-06-22T06:33:17;22.00;;;14.30;;
65558;SDS011;52203;51.998;5.140;2023-06-22T06:35:42;19.98;;;13.55;;
65558;SDS011;52203;51.998;5.140;2023-06-22T06:38:08;22.42;;;15.38;;
65558;SDS011;52203;51.998;5.140;2023-06-22T06:40:33;20.50;;;12.60;;
65558;SDS011;52203;51.998;5.140;2023-06-22T06:42:59;19.35;;;12.73;;
65558;SDS011;52203;51.998;5.140;2023-06-22T06:45:24;19.60;;;13.05;;
65558;SDS011;52203;51.998;5.140;2023-06-22T06:47:53;21.02;;;13.27;;
65558;SDS011;52203;51.998;5.140;2023-06-22T06:50:19;20.98;;;13.95;;
65558;SDS011;52203;51.998;5.140;2023-06-22T06:52:45;21.42;;;14.38;;
65558;SDS011;52203;51.998;5.140;2023-06-22T06:55:10;19.00;;;12.60;;
65558;SDS011;52203;51.998;5.140;2023-06-22T06:57:39;20.55;;;13.32;;
65558;SDS011;52203;51.998;5.140;2023-06-22T07:00:09;18.63;;;12.30;;
65558;SDS011;52203;51.998;5.140;2023-06-22T07:02:41;22.20;;;14.27;;
65558;SDS011;52203;51.998;5.140;2023-06-22T07:05:08;19.95;;;12.45;;
65558;SDS011;52203;51.998;5.140;2023-06-22T07:07:35;19.60;;;13.05;;
65558;SDS011;52203;51.998;5.140;2023-06-22T07:10:01;21.13;;;14.00;;
65558;SDS011;52203;51.998;5.140;2023-06-22T07:12:26;20.48;;;13.45;;
65558;SDS011;52203;51.998;5.140;2023-06-22T07:14:52;20.15;;;13.52;;
65558;SDS011;52203;51.998;5.140;2023-06-22T07:17:18;19.35;;;12.45;;
65558;SDS011;52203;51.998;5.140;2023-06-22T07:19:44;22.45;;;13.55;;
65558;SDS011;52203;51.998;5.140;2023-06-22T07:22:10;19.27;;;12.90;;
65558;SDS011;52203;51.998;5.140;2023-06-22T07:24:35;18.73;;;12.18;;
65558;SDS011;52203;51.998;5.140;2023-06-22T07:29:03;18.50;;;12.27;;
65558;SDS011;52203;51.998;5.140;2023-06-22T07:31:29;16.38;;;11.73;;
65558;SDS011;52203;51.998;5.140;2023-06-22T07:33:54;18.70;;;12.20;;
65558;SDS011;52203;51.998;5.140;2023-06-22T07:36:20;22.80;;;12.27;;
65558;SDS011;52203;51.998;5.140;2023-06-22T07:38:46;15.52;;;10.75;;
65558;SDS011;52203;51.998;5.140;2023-06-22T07:41:11;13.60;;;9.18;;
65558;SDS011;52203;51.998;5.140;2023-06-22T07:43:37;13.95;;;9.63;;
65558;SDS011;52203;51.998;5.140;2023-06-22T07:46:03;14.48;;;9.57;;
65558;SDS011;52203;51.998;5.140;2023-06-22T07:48:29;15.52;;;10.93;;
65558;SDS011;52203;51.998;5.140;2023-06-22T07:50:55;15.48;;;10.57;;
65558;SDS011;52203;51.998;5.140;2023-06-22T07:53:20;15.23;;;10.52;;
65558;SDS011;52203;51.998;5.140;2023-06-22T07:55:47;15.15;;;10.77;;
65558;SDS011;52203;51.998;5.140;2023-06-22T07:58:13;17.30;;;11.50;;
65558;SDS011;52203;51.998;5.140;2023-06-22T08:00:38;16.20;;;10.65;;
65558;SDS011;52203;51.998;5.140;2023-06-22T08:03:04;14.93;;;10.30;;
65558;SDS011;52203;51.998;5.140;2023-06-22T08:05:30;16.33;;;10.85;;
65558;SDS011;52203;51.998;5.140;2023-06-22T08:07:56;17.88;;;11.48;;
65558;SDS011;52203;51.998;5.140;2023-06-22T08:10:22;18.15;;;10.38;;
65558;SDS011;52203;51.998;5.140;2023-06-22T08:12:48;14.18;;;9.48;;
65558;SDS011;52203;51.998;5.140;2023-06-22T08:15:13;13.27;;;8.55;;
65558;SDS011;52203;51.998;5.140;2023-06-22T08:17:39;13.40;;;8.95;;
65558;SDS011;52203;51.998;5.140;2023-06-22T08:20:05;14.13;;;9.43;;
65558;SDS011;52203;51.998;5.140;2023-06-22T08:22:36;14.32;;;9.70;;
65558;SDS011;52203;51.998;5.140;2023-06-22T08:25:03;15.05;;;9.55;;
65558;SDS011;52203;51.998;5.140;2023-06-22T08:27:29;15.30;;;10.77;;
65558;SDS011;52203;51.998;5.140;2023-06-22T08:29:57;13.50;;;9.07;;
65558;SDS011;52203;51.998;5.140;2023-06-22T08:32:24;12.07;;;8.85;;
65558;SDS011;52203;51.998;5.140;2023-06-22T08:34:52;12.98;;;9.65;;
65558;SDS011;52203;51.998;5.140;2023-06-22T08:37:21;14.02;;;8.43;;
65558;SDS011;52203;51.998;5.140;2023-06-22T08:39:55;13.63;;;8.93;;
65558;SDS011;52203;51.998;5.140;2023-06-22T08:42:24;13.20;;;9.43;;
65558;SDS011;52203;51.998;5.140;2023-06-22T08:44:50;11.68;;;8.15;;
65558;SDS011;52203;51.998;5.140;2023-06-22T08:47:16;10.18;;;7.80;;
65558;SDS011;52203;51.998;5.140;2023-06-22T08:49:42;10.73;;;7.65;;
65558;SDS011;52203;51.998;5.140;2023-06-22T08:52:07;8.77;;;6.00;;
65558;SDS011;52203;51.998;5.140;2023-06-22T08:54:33;8.52;;;5.50;;
65558;SDS011;52203;51.998;5.140;2023-06-22T08:57:00;10.90;;;6.15;;
65558;SDS011;52203;51.998;5.140;2023-06-22T08:59:25;11.45;;;6.90;;
65558;SDS011;52203;51.998;5.140;2023-06-22T09:01:51;10.00;;;7.28;;
65558;SDS011;52203;51.998;5.140;2023-06-22T09:04:17;10.85;;;7.10;;
65558;SDS011;52203;51.998;5.140;2023-06-22T09:06:42;10.88;;;7.25;;
65558;SDS011;52203;51.998;5.140;2023-06-22T09:09:13;12.35;;;7.45;;
65558;SDS011;52203;51.998;5.140;2023-06-22T09:11:40;9.88;;;6.40;;
65558;SDS011;52203;51.998;5.140;2023-06-22T09:14:06;8.77;;;6.07;;
65558;SDS011;52203;51.998;5.140;2023-06-22T09:16:31;11.23;;;6.85;;
65558;SDS011;52203;51.998;5.140;2023-06-22T09:18:57;10.68;;;7.13;;
65558;SDS011;52203;51.998;5.140;2023-06-22T09:21:23;10.15;;;6.95;;
65558;SDS011;52203;51.998;5.140;2023-06-22T09:23:48;10.57;;;7.43;;
65558;SDS011;52203;51.998;5.140;2023-06-22T09:26:18;11.55;;;6.82;;
65558;SDS011;52203;51.998;5.140;2023-06-22T09:28:44;7.97;;;5.22;;
65558;SDS011;52203;51.998;5.140;2023-06-22T09:31:10;6.18;;;4.43;;
65558;SDS011;52203;51.998;5.140;2023-06-22T09:33:36;9.90;;;4.97;;
65558;SDS011;52203;51.998;5.140;2023-06-22T09:36:03;8.05;;;5.90;;
65558;SDS011;52203;51.998;5.140;2023-06-22T09:38:34;9.95;;;6.20;;
65558;SDS011;52203;51.998;5.140;2023-06-22T09:41:00;9.88;;;6.35;;
65558;SDS011;52203;51.998;5.140;2023-06-22T09:43:25;8.15;;;5.78;;
65558;SDS011;52203;51.998;5.140;2023-06-22T09:45:52;8.82;;;6.13;;
65558;SDS011;52203;51.998;5.140;2023-06-22T09:48:17;9.63;;;6.20;;
65558;SDS011;52203;51.998;5.140;2023-06-22T09:50:43;8.27;;;5.78;;
65558;SDS011;52203;51.998;5.140;2023-06-22T09:53:08;9.80;;;6.93;;
65558;SDS011;52203;51.998;5.140;2023-06-22T09:55:34;8.25;;;6.20;;
65558;SDS011;52203;51.998;5.140;2023-06-22T09:57:59;10.75;;;6.80;;
65558;SDS011;52203;51.998;5.140;2023-06-22T10:00:25;10.75;;;6.55;;
65558;SDS011;52203;51.998;5.140;2023-06-22T10:02:51;8.38;;;6.22;;
65558;SDS011;52203;51.998;5.140;2023-06-22T10:05:17;8.07;;;5.72;;
65558;SDS011;52203;51.998;5.140;2023-06-22T10:07:43;9.43;;;7.15;;
65558;SDS011;52203;51.998;5.140;2023-06-22T10:10:12;13.15;;;7.75;;
65558;SDS011;52203;51.998;5.140;2023-06-22T10:12:57;11.80;;;8.80;;
65558;SDS011;52203;51.998;5.140;2023-06-22T10:15:27;10.60;;;7.25;;
65558;SDS011;52203;51.998;5.140;2023-06-22T10:17:53;10.85;;;7.13;;
65558;SDS011;52203;51.998;5.140;2023-06-22T10:20:18;8.32;;;5.78;;
65558;SDS011;52203;51.998;5.140;2023-06-22T10:22:45;8.25;;;6.43;;
65558;SDS011;52203;51.998;5.140;2023-06-22T10:25:11;9.35;;;5.75;;
65558;SDS011;52203;51.998;5.140;2023-06-22T10:27:38;9.00;;;5.93;;
65558;SDS011;52203;51.998;5.140;2023-06-22T10:30:08;8.13;;;5.47;;
65558;SDS011;52203;51.998;5.140;2023-06-22T10:32:34;8.07;;;5.07;;
65558;SDS011;52203;51.998;5.140;2023-06-22T10:34:59;7.85;;;5.35;;
65558;SDS011;52203;51.998;5.140;2023-06-22T10:37:25;7.85;;;5.35;;
65558;SDS011;52203;51.998;5.140;2023-06-22T10:39:51;9.68;;;5.53;;
65558;SDS011;52203;51.998;5.140;2023-06-22T10:42:16;8.57;;;5.30;;
65558;SDS011;52203;51.998;5.140;2023-06-22T10:44:42;6.75;;;4.60;;
65558;SDS011;52203;51.998;5.140;2023-06-22T10:47:09;6.82;;;4.40;;
65558;SDS011;52203;51.998;5.140;2023-06-22T10:49:37;5.85;;;4.57;;
65558;SDS011;52203;51.998;5.140;2023-06-22T10:52:03;8.95;;;4.35;;
65558;SDS011;52203;51.998;5.140;2023-06-22T10:54:29;8.43;;;4.38;;
65558;SDS011;52203;51.998;5.140;2023-06-22T10:56:55;8.02;;;4.40;;
65558;SDS011;52203;51.998;5.140;2023-06-22T10:59:20;5.88;;;4.13;;
65558;SDS011;52203;51.998;5.140;2023-06-22T11:01:48;7.40;;;4.00;;
65558;SDS011;52203;51.998;5.140;2023-06-22T11:04:14;6.55;;;4.38;;
65558;SDS011;52203;51.998;5.140;2023-06-22T11:06:39;8.55;;;5.03;;
65558;SDS011;52203;51.998;5.140;2023-06-22T11:09:05;8.23;;;5.05;;
65558;SDS011;52203;51.998;5.140;2023-06-22T11:11:30;7.20;;;4.88;;
65558;SDS011;52203;51.998;5.140;2023-06-22T11:13:56;9.95;;;4.75;;
65558;SDS011;52203;51.998;5.140;2023-06-22T11:16:21;8.07;;;4.45;;
65558;SDS011;52203;51.998;5.140;2023-06-22T11:18:47;8.93;;;4.47;;
65558;SDS011;52203;51.998;5.140;2023-06-22T11:21:12;7.72;;;4.90;;
65558;SDS011;52203;51.998;5.140;2023-06-22T11:23:38;6.13;;;4.43;;
65558;SDS011;52203;51.998;5.140;2023-06-22T11:26:03;10.45;;;5.78;;
65558;SDS011;52203;51.998;5.140;2023-06-22T11:28:29;10.85;;;6.65;;
65558;SDS011;52203;51.998;5.140;2023-06-22T11:30:55;11.00;;;6.22;;
65558;SDS011;52203;51.998;5.140;2023-06-22T11:33:20;10.60;;;6.55;;
65558;SDS011;52203;51.998;5.140;2023-06-22T11:35:46;9.23;;;6.95;;
65558;SDS011;52203;51.998;5.140;2023-06-22T11:38:11;14.32;;;7.80;;
65558;SDS011;52203;51.998;5.140;2023-06-22T11:40:37;13.43;;;7.50;;
65558;SDS011;52203;51.998;5.140;2023-06-22T11:43:02;13.80;;;7.78;;
65558;SDS011;52203;51.998;5.140;2023-06-22T11:45:28;13.35;;;7.95;;
65558;SDS011;52203;51.998;5.140;2023-06-22T11:47:53;12.77;;;8.68;;
65558;SDS011;52203;51.998;5.140;2023-06-22T11:50:19;13.93;;;9.32;;
65558;SDS011;52203;51.998;5.140;2023-06-22T11:52:44;13.35;;;8.75;;
65558;SDS011;52203;51.998;5.140;2023-06-22T11:55:10;14.50;;;9.95;;
65558;SDS011;52203;51.998;5.140;2023-06-22T11:57:36;15.43;;;10.30;;
65558;SDS011;52203;51.998;5.140;2023-06-22T12:00:04;15.65;;;9.98;;
65558;SDS011;52203;51.998;5.140;2023-06-22T12:02:42;12.63;;;8.98;;
65558;SDS011;52203;51.998;5.140;2023-06-22T12:05:09;15.75;;;10.10;;
65558;SDS011;52203;51.998;5.140;2023-06-22T12:07:35;17.38;;;11.20;;
65558;SDS011;52203;51.998;5.140;2023-06-22T12:10:19;16.90;;;11.00;;
65558;SDS011;52203;51.998;5.140;2023-06-22T12:12:44;13.80;;;10.80;;
65558;SDS011;52203;51.998;5.140;2023-06-22T12:15:10;13.73;;;9.85;;
65558;SDS011;52203;51.998;5.140;2023-06-22T12:17:35;14.68;;;9.88;;
65558;SDS011;52203;51.998;5.140;2023-06-22T12:20:03;13.50;;;9.38;;
65558;SDS011;52203;51.998;5.140;2023-06-22T12:22:42;14.05;;;9.55;;
65558;SDS011;52203;51.998;5.140;2023-06-22T12:25:08;14.07;;;9.23;;
65558;SDS011;52203;51.998;5.140;2023-06-22T12:27:37;17.25;;;9.70;;
65558;SDS011;52203;51.998;5.140;2023-06-22T12:30:03;16.55;;;10.88;;
65558;SDS011;52203;51.998;5.140;2023-06-22T12:32:30;14.43;;;9.43;;
65558;SDS011;52203;51.998;5.140;2023-06-22T12:34:55;12.02;;;9.30;;
65558;SDS011;52203;51.998;5.140;2023-06-22T12:37:22;12.68;;;9.32;;
65558;SDS011;52203;51.998;5.140;2023-06-22T12:39:48;13.23;;;8.75;;
65558;SDS011;52203;51.998;5.140;2023-06-22T12:42:14;16.20;;;9.85;;
65558;SDS011;52203;51.998;5.140;2023-06-22T12:44:40;12.40;;;9.23;;
65558;SDS011;52203;51.998;5.140;2023-06-22T12:47:06;14.20;;;9.55;;
65558;SDS011;52203;51.998;5.140;2023-06-22T12:49:33;18.02;;;10.63;;
65558;SDS011;52203;51.998;5.140;2023-06-22T12:52:00;14.88;;;9.95;;
65558;SDS011;52203;51.998;5.140;2023-06-22T12:54:26;18.58;;;10.27;;
65558;SDS011;52203;51.998;5.140;2023-06-22T12:56:52;19.23;;;11.82;;
65558;SDS011;52203;51.998;5.140;2023-06-22T12:59:21;16.02;;;10.98;;
65558;SDS011;52203;51.998;5.140;2023-06-22T13:01:47;17.70;;;10.88;;
65558;SDS011;52203;51.998;5.140;2023-06-22T13:04:12;17.73;;;11.52;;
65558;SDS011;52203;51.998;5.140;2023-06-22T13:06:42;19.17;;;12.07;;
65558;SDS011;52203;51.998;5.140;2023-06-22T13:09:09;17.90;;;12.57;;
65558;SDS011;52203;51.998;5.140;2023-06-22T13:11:35;21.00;;;13.77;;
65558;SDS011;52203;51.998;5.140;2023-06-22T13:14:01;23.80;;;13.77;;
65558;SDS011;52203;51.998;5.140;2023-06-22T13:16:26;21.05;;;13.95;;
65558;SDS011;52203;51.998;5.140;2023-06-22T13:18:52;19.40;;;13.63;;
65558;SDS011;52203;51.998;5.140;2023-06-22T13:21:17;20.42;;;14.15;;
65558;SDS011;52203;51.998;5.140;2023-06-22T13:23:43;19.90;;;13.48;;
65558;SDS011;52203;51.998;5.140;2023-06-22T13:26:08;19.05;;;14.13;;
65558;SDS011;52203;51.998;5.140;2023-06-22T13:28:34;20.60;;;14.05;;
65558;SDS011;52203;51.998;5.140;2023-06-22T13:31:01;22.30;;;14.77;;
65558;SDS011;52203;51.998;5.140;2023-06-22T13:33:27;19.50;;;14.23;;
65558;SDS011;52203;51.998;5.140;2023-06-22T13:35:53;22.90;;;16.00;;
65558;SDS011;52203;51.998;5.140;2023-06-22T13:38:18;21.65;;;15.05;;
65558;SDS011;52203;51.998;5.140;2023-06-22T13:40:44;22.50;;;15.75;;
65558;SDS011;52203;51.998;5.140;2023-06-22T13:43:10;22.63;;;16.63;;
65558;SDS011;52203;51.998;5.140;2023-06-22T13:45:35;26.17;;;16.48;;
65558;SDS011;52203;51.998;5.140;2023-06-22T13:48:01;24.17;;;17.80;;
65558;SDS011;52203;51.998;5.140;2023-06-22T13:50:34;27.15;;;17.58;;
65558;SDS011;52203;51.998;5.140;2023-06-22T13:53:00;22.98;;;16.70;;
65558;SDS011;52203;51.998;5.140;2023-06-22T13:55:25;22.08;;;16.58;;
65558;SDS011;52203;51.998;5.140;2023-06-22T13:57:51;23.02;;;17.25;;
65558;SDS011;52203;51.998;5.140;2023-06-22T14:00:17;24.92;;;17.08;;
65558;SDS011;52203;51.998;5.140;2023-06-22T14:02:43;25.50;;;16.80;;
65558;SDS011;52203;51.998;5.140;2023-06-22T14:05:09;23.75;;;16.17;;
65558;SDS011;52203;51.998;5.140;2023-06-22T14:07:36;23.67;;;16.02;;
65558;SDS011;52203;51.998;5.140;2023-06-22T14:10:02;23.90;;;16.45;;
65558;SDS011;52203;51.998;5.140;2023-06-22T14:12:28;28.20;;;18.38;;
65558;SDS011;52203;51.998;5.140;2023-06-22T14:14:54;26.75;;;17.70;;
65558;SDS011;52203;51.998;5.140;2023-06-22T14:17:20;24.13;;;17.02;;
65558;SDS011;52203;51.998;5.140;2023-06-22T14:19:51;29.38;;;18.15;;
65558;SDS011;52203;51.998;5.140;2023-06-22T14:22:20;24.65;;;17.25;;
65558;SDS011;52203;51.998;5.140;2023-06-22T14:24:47;27.73;;;18.50;;
65558;SDS011;52203;51.998;5.140;2023-06-22T14:27:14;31.00;;;17.48;;
65558;SDS011;52203;51.998;5.140;2023-06-22T14:29:40;26.73;;;18.27;;
65558;SDS011;52203;51.998;5.140;2023-06-22T14:32:06;23.95;;;17.02;;
65558;SDS011;52203;51.998;5.140;2023-06-22T14:34:32;22.88;;;15.55;;
65558;SDS011;52203;51.998;5.140;2023-06-22T14:37:01;21.15;;;15.73;;
65558;SDS011;52203;51.998;5.140;2023-06-22T14:39:29;26.25;;;16.60;;
65558;SDS011;52203;51.998;5.140;2023-06-22T14:41:54;24.15;;;16.02;;
65558;SDS011;52203;51.998;5.140;2023-06-22T14:44:20;24.55;;;16.23;;